createdAt,value
2019-02-08T00:01:33.316Z,2.30
2019-02-08T00:04:20.996Z,2.20
2019-02-08T00:07:08.819Z,2.20
2019-02-08T00:09:56.455Z,2.20
2019-02-08T00:12:44.214Z,2.20
2019-02-08T00:15:32.476Z,2.20
2019-02-08T00:18:20.268Z,2.20
2019-02-08T00:21:07.810Z,2.20
2019-02-08T00:23:55.829Z,2.20
2019-02-08T00:26:43.469Z,2.30
2019-02-08T00:29:31.252Z,2.30
2019-02-08T00:32:19.016Z,2.30
2019-02-08T00:35:06.879Z,2.30
2019-02-08T00:37:54.856Z,2.30
2019-02-08T00:40:42.614Z,2.30
2019-02-08T00:43:30.009Z,2.30
2019-02-08T00:46:17.367Z,2.30
2019-02-08T00:49:05.432Z,2.30
2019-02-08T00:51:52.873Z,2.30
2019-02-08T00:54:40.257Z,2.30
2019-02-08T00:57:27.869Z,2.30
2019-02-08T01:00:16.218Z,2.40
2019-02-08T01:03:04.252Z,2.40
2019-02-08T01:05:52.703Z,2.30
2019-02-08T01:08:40.977Z,2.20
2019-02-08T01:11:28.629Z,2.20
2019-02-08T01:14:16.632Z,2.10
2019-02-08T01:17:04.557Z,2.00
2019-02-08T01:19:52.477Z,2.00
2019-02-08T01:22:40.328Z,1.90
2019-02-08T01:25:28.793Z,1.90
2019-02-08T01:28:15.913Z,1.90
2019-02-08T01:31:04.290Z,1.90
2019-02-08T01:33:52.214Z,1.90
2019-02-08T01:36:40.034Z,1.80
2019-02-08T01:39:28.090Z,1.80
2019-02-08T01:42:15.810Z,1.80
2019-02-08T01:45:03.252Z,1.80
2019-02-08T01:47:51.450Z,1.80
2019-02-08T01:50:39.296Z,1.80
2019-02-08T01:53:27.262Z,1.80
2019-02-08T01:56:15.113Z,1.80
2019-02-08T01:59:03.028Z,1.80
2019-02-08T02:01:51.041Z,1.80
2019-02-08T02:04:38.785Z,1.80
2019-02-08T02:07:26.402Z,1.80
2019-02-08T02:10:21.313Z,1.80
2019-02-08T02:13:11.212Z,1.80
2019-02-08T02:15:58.741Z,1.80
2019-02-08T02:18:46.472Z,1.80
2019-02-08T02:21:34.350Z,1.90
2019-02-08T02:24:22.057Z,1.90
2019-02-08T02:27:09.970Z,2.00
2019-02-08T02:29:57.601Z,2.00
2019-02-08T02:32:45.650Z,2.00
2019-02-08T02:35:33.454Z,2.00
2019-02-08T02:38:21.229Z,1.80
2019-02-08T02:41:08.959Z,1.70
2019-02-08T02:43:57.045Z,1.60
2019-02-08T02:46:44.701Z,1.60
2019-02-08T02:49:32.824Z,1.60
2019-02-08T02:52:20.440Z,1.60
2019-02-08T02:55:09.242Z,1.70
2019-02-08T02:57:57.620Z,1.60
2019-02-08T03:00:47.628Z,1.60
2019-02-08T03:03:35.893Z,1.60
2019-02-08T03:06:23.629Z,1.60
2019-02-08T03:09:11.845Z,1.50
2019-02-08T03:12:00.036Z,1.50
2019-02-08T03:14:47.952Z,1.50
2019-02-08T03:17:35.889Z,1.50
2019-02-08T03:20:24.023Z,1.40
2019-02-08T03:23:11.745Z,1.40
2019-02-08T03:26:00.152Z,1.50
2019-02-08T03:28:48.264Z,1.50
2019-02-08T03:31:36.592Z,1.50
2019-02-08T03:34:23.929Z,1.40
2019-02-08T03:37:11.766Z,1.30
2019-02-08T03:39:59.493Z,1.30
2019-02-08T03:42:47.231Z,1.20
2019-02-08T03:45:38.587Z,1.00
2019-02-08T03:48:26.548Z,0.80
2019-02-08T03:51:14.319Z,0.70
2019-02-08T03:54:02.457Z,0.60
2019-02-08T03:56:50.376Z,0.60
2019-02-08T03:59:38.312Z,0.70
2019-02-08T04:02:26.443Z,0.80
2019-02-08T04:05:14.900Z,0.90
2019-02-08T04:08:03.028Z,1.00
2019-02-08T04:10:50.761Z,1.00
2019-02-08T04:13:38.558Z,1.10
2019-02-08T04:16:26.014Z,1.10
2019-02-08T04:19:13.413Z,1.10
2019-02-08T04:22:00.944Z,1.20
2019-02-08T04:24:48.688Z,1.20
2019-02-08T04:27:36.632Z,1.30
2019-02-08T04:30:26.814Z,1.30
2019-02-08T04:33:14.586Z,1.20
2019-02-08T04:36:02.013Z,1.10
2019-02-08T04:38:49.679Z,1.10
2019-02-08T04:41:38.085Z,1.10
2019-02-08T04:44:26.120Z,1.10
2019-02-08T04:47:13.718Z,1.10
2019-02-08T04:50:01.037Z,1.10
2019-02-08T04:52:49.387Z,1.10
2019-02-08T04:55:37.408Z,1.00
2019-02-08T04:58:25.029Z,0.90
2019-02-08T05:01:12.936Z,0.90
2019-02-08T05:04:00.993Z,0.80
2019-02-08T05:06:48.938Z,0.90
2019-02-08T05:09:36.662Z,0.90
2019-02-08T05:12:24.704Z,0.90
2019-02-08T05:15:13.200Z,0.90
2019-02-08T05:18:00.806Z,0.90
2019-02-08T05:20:48.497Z,0.90
2019-02-08T05:23:36.042Z,0.90
2019-02-08T05:26:23.793Z,0.80
2019-02-08T05:29:11.776Z,0.80
2019-02-08T05:31:59.581Z,0.80
2019-02-08T05:34:47.377Z,0.70
2019-02-08T05:37:35.362Z,0.70
2019-02-08T05:40:23.460Z,0.60
2019-02-08T05:43:11.252Z,0.60
2019-02-08T05:45:59.020Z,0.50
2019-02-08T05:48:47.076Z,0.50
2019-02-08T05:51:34.726Z,0.50
2019-02-08T05:54:22.244Z,0.50
2019-02-08T05:57:10.263Z,0.50
2019-02-08T05:59:57.937Z,0.40
2019-02-08T06:02:45.918Z,0.40
2019-02-08T06:05:33.497Z,0.40
2019-02-08T06:08:21.699Z,0.40
2019-02-08T06:11:09.341Z,0.30
2019-02-08T06:13:57.341Z,0.30
2019-02-08T06:16:46.926Z,0.30
2019-02-08T06:19:34.469Z,0.20
2019-02-08T06:22:21.861Z,0.20
2019-02-08T06:25:09.979Z,0.20
2019-02-08T06:27:57.429Z,0.10
2019-02-08T06:30:45.554Z,0.10
2019-02-08T06:33:33.645Z,-0.10
2019-02-08T06:36:21.637Z,-0.10
2019-02-08T06:39:09.717Z,-0.20
2019-02-08T06:41:57.677Z,-0.20
2019-02-08T06:44:45.409Z,-0.20
2019-02-08T06:47:33.442Z,-0.30
2019-02-08T06:50:22.625Z,-0.20
2019-02-08T06:53:10.203Z,-0.20
2019-02-08T06:55:58.080Z,-0.30
2019-02-08T06:58:51.397Z,-0.30
2019-02-08T07:01:52.049Z,-0.20
2019-02-08T07:04:53.294Z,-0.30
2019-02-08T07:07:49.209Z,-0.30
2019-02-08T07:10:56.232Z,-0.40
2019-02-08T07:14:02.113Z,-0.40
2019-02-08T07:17:09.145Z,-0.40
2019-02-08T07:20:30.777Z,-0.40
2019-02-08T07:23:37.655Z,-0.40
2019-02-08T07:26:42.814Z,-0.40
2019-02-08T07:29:49.106Z,-0.40
2019-02-08T07:33:00.313Z,-0.40
2019-02-08T07:36:07.409Z,-0.20
2019-02-08T07:39:13.265Z,-0.10
2019-02-08T07:42:23.621Z,0.00
2019-02-08T07:45:22.777Z,0.20
2019-02-08T07:48:18.056Z,0.30
2019-02-08T07:51:14.988Z,0.40
2019-02-08T07:54:27.135Z,0.50
2019-02-08T07:57:40.232Z,0.70
2019-02-08T08:00:42.285Z,0.80
2019-02-08T08:04:07.434Z,0.90
2019-02-08T08:07:15.193Z,1.00
2019-02-08T08:10:28.341Z,1.10
2019-02-08T08:13:27.435Z,1.20
2019-02-08T08:16:35.841Z,1.40
2019-02-08T08:19:32.046Z,1.50
2019-02-08T08:22:38.041Z,1.60
2019-02-08T08:25:47.489Z,1.70
2019-02-08T08:28:54.138Z,1.90
2019-02-08T08:31:50.577Z,1.90
2019-02-08T08:35:03.156Z,2.00
2019-02-08T08:38:18.116Z,2.00
2019-02-08T08:42:01.856Z,2.00
2019-02-08T08:45:45.822Z,2.00
2019-02-08T08:49:04.600Z,2.10
2019-02-08T08:52:14.764Z,2.30
2019-02-08T08:55:29.572Z,2.50
2019-02-08T08:58:46.007Z,2.60
2019-02-08T09:02:10.817Z,2.60
2019-02-08T09:05:34.516Z,2.70
2019-02-08T09:08:59.053Z,2.80
2019-02-08T09:12:34.579Z,2.80
2019-02-08T09:16:21.964Z,2.90
2019-02-08T09:19:57.284Z,3.00
2019-02-08T09:23:07.176Z,3.10
2019-02-08T09:26:46.734Z,3.20
2019-02-08T09:30:01.020Z,3.30
2019-02-08T09:33:13.074Z,3.50
2019-02-08T09:36:47.349Z,3.80
2019-02-08T09:40:28.061Z,4.00
2019-02-08T09:43:58.882Z,4.10
2019-02-08T09:47:32.597Z,4.10
2019-02-08T09:50:56.154Z,4.10
2019-02-08T09:54:24.471Z,4.10
2019-02-08T09:57:49.917Z,4.10
2019-02-08T10:01:40.401Z,4.20
2019-02-08T10:05:09.307Z,4.30
2019-02-08T10:08:39.123Z,4.40
2019-02-08T10:12:02.469Z,4.60
2019-02-08T10:15:41.899Z,4.70
2019-02-08T10:19:13.724Z,4.80
2019-02-08T10:22:36.641Z,4.90
2019-02-08T10:26:10.757Z,5.10
2019-02-08T10:29:39.027Z,5.10
2019-02-08T10:33:16.840Z,5.10
2019-02-08T10:36:47.825Z,5.10
2019-02-08T10:40:26.149Z,5.30
2019-02-08T10:44:07.364Z,5.50
2019-02-08T10:47:34.380Z,5.50
2019-02-08T10:51:06.994Z,5.50
2019-02-08T10:54:35.704Z,5.60
2019-02-08T10:58:10.113Z,5.80
2019-02-08T11:01:27.225Z,5.80
2019-02-08T11:05:07.325Z,5.80
2019-02-08T11:08:47.021Z,5.90
2019-02-08T11:12:11.604Z,5.90
2019-02-08T11:15:35.865Z,6.00
2019-02-08T11:19:23.796Z,6.20
2019-02-08T11:22:11.533Z,6.50
2019-02-08T11:24:59.545Z,6.70
2019-02-08T11:27:47.101Z,6.80
2019-02-08T11:30:35.121Z,6.80
2019-02-08T11:33:23.149Z,6.80
2019-02-08T11:36:11.668Z,6.80
2019-02-08T11:38:59.885Z,6.90
2019-02-08T11:41:48.761Z,7.00
2019-02-08T11:44:36.701Z,7.10
2019-02-08T11:47:24.285Z,7.00
2019-02-08T11:50:15.621Z,7.00
2019-02-08T11:53:03.273Z,7.10
2019-02-08T11:55:50.769Z,7.10
2019-02-08T11:58:38.523Z,7.20
2019-02-08T12:01:27.255Z,7.20
2019-02-08T12:04:14.680Z,7.20
2019-02-08T12:07:02.508Z,7.30
2019-02-08T12:09:50.405Z,7.40
2019-02-08T12:12:37.880Z,7.40
2019-02-08T12:15:25.553Z,7.50
2019-02-08T12:18:13.232Z,7.50
2019-02-08T12:21:01.243Z,7.60
2019-02-08T12:23:48.866Z,7.70
2019-02-08T12:26:37.855Z,7.80
2019-02-08T12:29:26.185Z,7.80
2019-02-08T12:32:13.861Z,7.80
2019-02-08T12:35:01.490Z,7.80
2019-02-08T12:37:49.430Z,7.90
2019-02-08T12:40:37.296Z,7.90
2019-02-08T12:43:25.078Z,8.00
2019-02-08T12:46:12.741Z,8.00
2019-02-08T12:49:00.273Z,8.00
2019-02-08T12:51:47.840Z,8.00
2019-02-08T12:54:35.698Z,8.10
2019-02-08T12:57:23.220Z,8.20
2019-02-08T13:00:14.624Z,8.30
2019-02-08T13:03:02.384Z,8.40
2019-02-08T13:05:50.086Z,8.40
2019-02-08T13:08:37.889Z,8.40
2019-02-08T13:11:25.501Z,8.40
2019-02-08T13:14:13.281Z,8.40
2019-02-08T13:17:00.776Z,8.50
2019-02-08T13:19:48.712Z,8.50
2019-02-08T13:22:36.702Z,8.50
2019-02-08T13:25:24.096Z,8.50
2019-02-08T13:28:11.692Z,8.50
2019-02-08T13:30:59.352Z,8.50
2019-02-08T13:33:47.033Z,8.60
2019-02-08T13:36:34.740Z,8.60
2019-02-08T13:39:22.222Z,8.60
2019-02-08T13:42:10.305Z,8.70
2019-02-08T13:44:58.077Z,8.60
2019-02-08T13:47:45.721Z,8.60
2019-02-08T13:50:34.024Z,8.60
2019-02-08T13:53:21.689Z,8.60
2019-02-08T13:56:09.257Z,8.60
2019-02-08T13:58:57.094Z,8.70
2019-02-08T14:01:44.893Z,8.70
2019-02-08T14:04:32.768Z,8.70
2019-02-08T14:07:21.508Z,8.80
2019-02-08T14:10:10.591Z,8.80
2019-02-08T14:12:58.170Z,8.80
2019-02-08T14:15:45.573Z,8.80
2019-02-08T14:18:33.220Z,8.80
2019-02-08T14:21:20.605Z,8.70
2019-02-08T14:24:08.328Z,8.60
2019-02-08T14:26:56.240Z,8.60
2019-02-08T14:29:43.810Z,8.60
2019-02-08T14:32:31.641Z,8.60
2019-02-08T14:35:19.202Z,8.60
2019-02-08T14:38:11.349Z,8.60
2019-02-08T14:40:58.844Z,8.50
2019-02-08T14:43:46.212Z,8.50
2019-02-08T14:46:33.944Z,8.50
2019-02-08T14:49:21.608Z,8.50
2019-02-08T14:52:09.316Z,8.50
2019-02-08T14:54:56.530Z,8.40
2019-02-08T14:57:44.520Z,8.30
2019-02-08T15:00:32.130Z,8.20
2019-02-08T15:03:19.837Z,8.10
2019-02-08T15:06:08.244Z,8.00
2019-02-08T15:08:55.941Z,7.90
2019-02-08T15:11:43.740Z,7.80
2019-02-08T15:14:31.428Z,7.80
2019-02-08T15:17:19.060Z,7.70
2019-02-08T15:20:10.014Z,7.60
2019-02-08T15:22:57.906Z,7.50
2019-02-08T15:25:45.418Z,7.50
2019-02-08T15:28:33.088Z,7.40
2019-02-08T15:31:20.809Z,7.30
2019-02-08T15:34:08.452Z,7.20
2019-02-08T15:36:56.688Z,7.10
2019-02-08T15:39:44.653Z,7.10
2019-02-08T15:42:32.709Z,7.00
2019-02-08T15:45:20.806Z,7.00
2019-02-08T15:48:08.632Z,6.90
2019-02-08T15:50:56.650Z,6.90
2019-02-08T15:53:44.601Z,6.80
2019-02-08T15:56:32.248Z,6.70
2019-02-08T15:59:19.595Z,6.70
2019-02-08T16:02:08.156Z,6.60
2019-02-08T16:04:56.661Z,6.50
2019-02-08T16:07:44.182Z,6.40
2019-02-08T16:10:32.108Z,6.30
2019-02-08T16:13:19.602Z,6.20
2019-02-08T16:16:08.785Z,6.10
2019-02-08T16:18:57.573Z,6.00
2019-02-08T16:21:45.062Z,6.00
2019-02-08T16:24:32.773Z,5.80
2019-02-08T16:27:22.821Z,5.70
2019-02-08T16:30:14.582Z,5.60
2019-02-08T16:33:08.751Z,5.50
2019-02-08T16:36:00.483Z,5.40
2019-02-08T16:38:55.485Z,5.30
2019-02-08T16:41:43.237Z,5.20
2019-02-08T16:44:31.590Z,5.10
2019-02-08T16:47:22.728Z,5.00
2019-02-08T16:50:13.119Z,4.90
2019-02-08T16:53:08.511Z,4.70
2019-02-08T16:55:56.275Z,4.60
2019-02-08T16:58:44.132Z,4.50
2019-02-08T17:01:33.081Z,4.20
2019-02-08T17:04:20.922Z,4.10
2019-02-08T17:07:08.879Z,4.00
2019-02-08T17:09:56.198Z,3.70
2019-02-08T17:12:43.784Z,3.60
2019-02-08T17:15:31.486Z,3.50
2019-02-08T17:18:19.053Z,3.40
2019-02-08T17:21:06.652Z,3.30
2019-02-08T17:23:55.137Z,3.30
2019-02-08T17:26:42.679Z,3.20
2019-02-08T17:29:30.274Z,3.20
2019-02-08T17:32:17.632Z,3.20
2019-02-08T17:35:06.931Z,3.20
2019-02-08T17:37:54.832Z,3.20
2019-02-08T17:40:44.442Z,3.10
2019-02-08T17:43:32.729Z,3.00
2019-02-08T17:46:20.421Z,3.00
2019-02-08T17:49:08.194Z,3.00
2019-02-08T17:51:56.132Z,3.00
2019-02-08T17:54:43.793Z,2.90
2019-02-08T17:57:31.218Z,2.90
2019-02-08T18:00:55.104Z,2.90
2019-02-08T18:03:42.967Z,2.80
2019-02-08T18:06:30.813Z,2.80
2019-02-08T18:09:18.406Z,2.70
2019-02-08T18:12:05.785Z,2.50
2019-02-08T18:14:53.382Z,2.40
2019-02-08T18:17:41.478Z,2.30
2019-02-08T18:20:31.696Z,2.10
2019-02-08T18:23:19.364Z,2.00
2019-02-08T18:26:06.773Z,1.90
2019-02-08T18:28:54.077Z,1.90
2019-02-08T18:31:41.369Z,1.90
2019-02-08T18:34:28.722Z,1.90
2019-02-08T18:37:16.966Z,1.90
2019-02-08T18:40:05.931Z,1.90
2019-02-08T18:42:53.605Z,1.90
2019-02-08T18:45:41.105Z,1.90
2019-02-08T18:48:28.754Z,1.90
2019-02-08T18:51:16.245Z,1.80
2019-02-08T18:54:04.127Z,1.80
2019-02-08T18:56:51.893Z,1.80
2019-02-08T18:59:40.093Z,1.80
2019-02-08T19:02:27.525Z,1.80
2019-02-08T19:05:16.126Z,1.80
2019-02-08T19:08:04.133Z,1.80
2019-02-08T19:10:52.147Z,1.70
2019-02-08T19:13:39.346Z,1.60
2019-02-08T19:16:26.668Z,1.60
2019-02-08T19:19:14.407Z,1.60
2019-02-08T19:22:01.885Z,1.60
2019-02-08T19:24:49.841Z,1.60
2019-02-08T19:27:37.608Z,1.50
2019-02-08T19:30:30.852Z,1.50
2019-02-08T19:33:19.078Z,1.50
2019-02-08T19:36:07.424Z,1.40
2019-02-08T19:38:54.871Z,1.40
2019-02-08T19:41:43.565Z,1.50
2019-02-08T19:44:30.962Z,1.40
2019-02-08T19:47:19.049Z,1.40
2019-02-08T19:50:07.969Z,1.40
2019-02-08T19:52:55.599Z,1.40
2019-02-08T19:55:42.988Z,1.40
2019-02-08T19:58:34.632Z,1.40
2019-02-08T20:01:19.969Z,1.40
2019-02-08T20:04:07.675Z,1.30
2019-02-08T20:06:55.539Z,1.30
2019-02-08T20:09:43.575Z,1.30
2019-02-08T20:12:31.185Z,1.30
2019-02-08T20:15:19.286Z,1.30
2019-02-08T20:18:08.229Z,1.30
2019-02-08T20:20:55.689Z,1.30
2019-02-08T20:23:43.739Z,1.30
2019-02-08T20:26:31.641Z,1.20
2019-02-08T20:29:19.233Z,1.20
2019-02-08T20:32:06.773Z,1.20
2019-02-08T20:34:54.271Z,1.10
2019-02-08T20:37:42.105Z,1.10
2019-02-08T20:40:32.044Z,1.00
2019-02-08T20:43:19.870Z,0.90
2019-02-08T20:46:07.836Z,0.90
2019-02-08T20:48:55.613Z,0.90
2019-02-08T20:51:43.500Z,0.90
2019-02-08T20:54:31.246Z,0.90
2019-02-08T20:57:19.318Z,0.90
2019-02-08T21:00:29.726Z,0.90
2019-02-08T21:03:18.067Z,0.90
2019-02-08T21:06:05.969Z,0.80
2019-02-08T21:08:53.704Z,0.50
2019-02-08T21:11:41.705Z,0.40
2019-02-08T21:14:29.380Z,0.50
2019-02-08T21:17:17.153Z,0.50
2019-02-08T21:20:06.873Z,0.50
2019-02-08T21:22:54.942Z,0.60
2019-02-08T21:25:42.954Z,0.60
2019-02-08T21:28:32.073Z,0.60
2019-02-08T21:31:19.800Z,0.60
2019-02-08T21:34:07.499Z,0.70
2019-02-08T21:36:55.170Z,0.70
2019-02-08T21:39:42.908Z,0.70
2019-02-08T21:42:30.297Z,0.70
2019-02-08T21:45:20.405Z,0.70
2019-02-08T21:48:09.883Z,0.80
2019-02-08T21:50:57.948Z,0.80
2019-02-08T21:53:45.598Z,0.80
2019-02-08T21:56:33.309Z,0.80
2019-02-08T21:59:21.120Z,0.80
2019-02-08T22:02:09.009Z,0.80
2019-02-08T22:04:56.661Z,0.80
2019-02-08T22:07:44.163Z,0.80
2019-02-08T22:10:31.948Z,0.80
2019-02-08T22:13:19.798Z,0.80
2019-02-08T22:16:07.332Z,0.80
2019-02-08T22:18:55.185Z,0.80
2019-02-08T22:21:43.006Z,0.80
2019-02-08T22:24:33.585Z,0.80
2019-02-08T22:27:20.888Z,0.90
2019-02-08T22:30:11.956Z,0.90
2019-02-08T22:33:01.467Z,0.90
2019-02-08T22:35:49.425Z,0.90
2019-02-08T22:38:37.191Z,0.90
2019-02-08T22:41:24.816Z,0.80
2019-02-08T22:44:12.367Z,0.80
2019-02-08T22:47:00.416Z,0.80
2019-02-08T22:49:48.027Z,0.70
2019-02-08T22:52:35.945Z,0.70
2019-02-08T22:55:25.386Z,0.70
2019-02-08T22:58:13.236Z,0.70
2019-02-08T23:01:29.726Z,0.60
2019-02-08T23:04:19.268Z,0.60
2019-02-08T23:07:07.474Z,0.60
2019-02-08T23:09:55.395Z,0.60
2019-02-08T23:12:42.901Z,0.50
2019-02-08T23:15:30.549Z,0.50
2019-02-08T23:18:18.484Z,0.50
2019-02-08T23:21:06.703Z,0.50
2019-02-08T23:23:55.466Z,0.50
2019-02-08T23:26:43.647Z,0.40
2019-02-08T23:29:31.209Z,0.40
2019-02-08T23:32:19.775Z,0.40
2019-02-08T23:35:08.117Z,0.40
2019-02-08T23:37:56.141Z,0.40
2019-02-08T23:40:43.876Z,0.40
2019-02-08T23:43:31.949Z,0.40
2019-02-08T23:46:19.688Z,0.40
2019-02-08T23:49:07.358Z,0.40
2019-02-08T23:51:58.534Z,0.40
2019-02-08T23:54:46.550Z,0.30
2019-02-08T23:57:34.683Z,0.30
